sensor_id;sensor_type;location;lat;lon;timestamp;P1;durP1;ratioP1;P2;durP2;ratioP2
54263;SDS011;40178;53.042;6.406;2023-09-08T00:02:02;10.65;;;7.70;;
54263;SDS011;40178;53.042;6.406;2023-09-08T00:04:28;10.82;;;7.07;;
54263;SDS011;40178;53.042;6.406;2023-09-08T00:06:53;11.02;;;6.70;;
54263;SDS011;40178;53.042;6.406;2023-09-08T00:09:19;11.13;;;8.35;;
54263;SDS011;40178;53.042;6.406;2023-09-08T00:11:45;8.93;;;7.50;;
54263;SDS011;40178;53.042;6.406;2023-09-08T00:14:10;8.82;;;6.45;;
54263;SDS011;40178;53.042;6.406;2023-09-08T00:16:36;11.15;;;7.05;;
54263;SDS011;40178;53.042;6.406;2023-09-08T00:19:04;11.95;;;7.50;;
54263;SDS011;40178;53.042;6.406;2023-09-08T00:21:29;9.32;;;7.32;;
54263;SDS011;40178;53.042;6.406;2023-09-08T00:23:55;9.40;;;7.25;;
54263;SDS011;40178;53.042;6.406;2023-09-08T00:26:21;11.35;;;7.93;;
54263;SDS011;40178;53.042;6.406;2023-09-08T00:28:47;11.55;;;7.90;;
54263;SDS011;40178;53.042;6.406;2023-09-08T00:31:13;9.05;;;7.13;;
54263;SDS011;40178;53.042;6.406;2023-09-08T00:33:39;10.15;;;7.13;;
54263;SDS011;40178;53.042;6.406;2023-09-08T00:36:05;9.52;;;7.70;;
54263;SDS011;40178;53.042;6.406;2023-09-08T00:38:31;9.27;;;7.10;;
54263;SDS011;40178;53.042;6.406;2023-09-08T00:40:57;9.52;;;7.47;;
54263;SDS011;40178;53.042;6.406;2023-09-08T00:43:24;11.18;;;7.60;;
54263;SDS011;40178;53.042;6.406;2023-09-08T00:45:49;9.30;;;7.65;;
54263;SDS011;40178;53.042;6.406;2023-09-08T00:48:15;12.27;;;8.45;;
54263;SDS011;40178;53.042;6.406;2023-09-08T00:50:41;8.85;;;7.10;;
54263;SDS011;40178;53.042;6.406;2023-09-08T00:53:06;11.10;;;7.82;;
54263;SDS011;40178;53.042;6.406;2023-09-08T00:55:33;9.48;;;7.28;;
54263;SDS011;40178;53.042;6.406;2023-09-08T00:57:59;11.18;;;7.88;;
54263;SDS011;40178;53.042;6.406;2023-09-08T01:00:26;9.25;;;7.35;;
54263;SDS011;40178;53.042;6.406;2023-09-08T01:02:51;10.15;;;7.93;;
54263;SDS011;40178;53.042;6.406;2023-09-08T01:05:17;11.02;;;8.20;;
54263;SDS011;40178;53.042;6.406;2023-09-08T01:07:44;9.98;;;7.90;;
54263;SDS011;40178;53.042;6.406;2023-09-08T01:10:10;11.63;;;8.10;;
54263;SDS011;40178;53.042;6.406;2023-09-08T01:12:38;11.05;;;8.15;;
54263;SDS011;40178;53.042;6.406;2023-09-08T01:15:04;11.43;;;7.97;;
54263;SDS011;40178;53.042;6.406;2023-09-08T01:17:30;10.80;;;8.15;;
54263;SDS011;40178;53.042;6.406;2023-09-08T01:19:56;11.38;;;8.32;;
54263;SDS011;40178;53.042;6.406;2023-09-08T01:25:21;11.18;;;7.78;;
54263;SDS011;40178;53.042;6.406;2023-09-08T01:27:52;10.55;;;7.80;;
54263;SDS011;40178;53.042;6.406;2023-09-08T01:30:19;10.85;;;8.50;;
54263;SDS011;40178;53.042;6.406;2023-09-08T01:32:46;11.48;;;8.55;;
54263;SDS011;40178;53.042;6.406;2023-09-08T01:35:12;10.52;;;8.35;;
54263;SDS011;40178;53.042;6.406;2023-09-08T01:37:42;10.18;;;8.43;;
54263;SDS011;40178;53.042;6.406;2023-09-08T01:40:11;12.18;;;8.50;;
54263;SDS011;40178;53.042;6.406;2023-09-08T01:42:37;12.68;;;8.73;;
54263;SDS011;40178;53.042;6.406;2023-09-08T01:45:03;10.18;;;8.70;;
54263;SDS011;40178;53.042;6.406;2023-09-08T01:47:30;10.18;;;7.97;;
54263;SDS011;40178;53.042;6.406;2023-09-08T01:49:56;12.52;;;8.85;;
54263;SDS011;40178;53.042;6.406;2023-09-08T01:52:21;15.68;;;9.25;;
54263;SDS011;40178;53.042;6.406;2023-09-08T01:54:47;10.13;;;8.13;;
54263;SDS011;40178;53.042;6.406;2023-09-08T01:57:13;10.93;;;8.57;;
54263;SDS011;40178;53.042;6.406;2023-09-08T01:59:38;11.35;;;8.48;;
54263;SDS011;40178;53.042;6.406;2023-09-08T02:02:05;10.25;;;8.35;;
54263;SDS011;40178;53.042;6.406;2023-09-08T02:04:31;12.07;;;8.10;;
54263;SDS011;40178;53.042;6.406;2023-09-08T02:06:57;11.45;;;8.48;;
54263;SDS011;40178;53.042;6.406;2023-09-08T02:09:29;10.80;;;8.90;;
54263;SDS011;40178;53.042;6.406;2023-09-08T02:11:56;11.77;;;8.95;;
54263;SDS011;40178;53.042;6.406;2023-09-08T02:14:22;11.07;;;8.43;;
54263;SDS011;40178;53.042;6.406;2023-09-08T02:16:47;10.40;;;8.63;;
54263;SDS011;40178;53.042;6.406;2023-09-08T02:19:13;12.48;;;9.48;;
54263;SDS011;40178;53.042;6.406;2023-09-08T02:21:38;10.60;;;8.57;;
54263;SDS011;40178;53.042;6.406;2023-09-08T02:24:04;10.88;;;8.93;;
54263;SDS011;40178;53.042;6.406;2023-09-08T02:26:30;10.85;;;8.55;;
54263;SDS011;40178;53.042;6.406;2023-09-08T02:28:58;12.68;;;8.40;;
54263;SDS011;40178;53.042;6.406;2023-09-08T02:31:23;13.02;;;8.23;;
54263;SDS011;40178;53.042;6.406;2023-09-08T02:33:49;10.18;;;8.90;;
54263;SDS011;40178;53.042;6.406;2023-09-08T02:36:14;12.43;;;8.73;;
54263;SDS011;40178;53.042;6.406;2023-09-08T02:38:40;11.98;;;9.43;;
54263;SDS011;40178;53.042;6.406;2023-09-08T02:41:06;11.30;;;8.80;;
54263;SDS011;40178;53.042;6.406;2023-09-08T02:43:31;11.95;;;9.30;;
54263;SDS011;40178;53.042;6.406;2023-09-08T02:45:57;13.90;;;9.38;;
54263;SDS011;40178;53.042;6.406;2023-09-08T02:48:22;13.18;;;9.27;;
54263;SDS011;40178;53.042;6.406;2023-09-08T02:50:49;11.50;;;9.20;;
54263;SDS011;40178;53.042;6.406;2023-09-08T02:53:15;12.27;;;9.55;;
54263;SDS011;40178;53.042;6.406;2023-09-08T02:55:40;12.60;;;8.45;;
54263;SDS011;40178;53.042;6.406;2023-09-08T02:58:06;12.70;;;9.68;;
54263;SDS011;40178;53.042;6.406;2023-09-08T03:00:31;14.57;;;10.25;;
54263;SDS011;40178;53.042;6.406;2023-09-08T03:02:57;12.57;;;9.27;;
54263;SDS011;40178;53.042;6.406;2023-09-08T03:05:23;11.60;;;9.63;;
54263;SDS011;40178;53.042;6.406;2023-09-08T03:07:48;10.80;;;8.50;;
54263;SDS011;40178;53.042;6.406;2023-09-08T03:10:14;15.48;;;10.32;;
54263;SDS011;40178;53.042;6.406;2023-09-08T03:12:41;12.15;;;9.18;;
54263;SDS011;40178;53.042;6.406;2023-09-08T03:15:06;14.07;;;10.43;;
54263;SDS011;40178;53.042;6.406;2023-09-08T03:17:32;12.25;;;9.90;;
54263;SDS011;40178;53.042;6.406;2023-09-08T03:19:58;12.75;;;9.80;;
54263;SDS011;40178;53.042;6.406;2023-09-08T03:22:23;13.75;;;10.02;;
54263;SDS011;40178;53.042;6.406;2023-09-08T03:24:49;13.15;;;9.20;;
54263;SDS011;40178;53.042;6.406;2023-09-08T03:27:15;11.82;;;9.85;;
54263;SDS011;40178;53.042;6.406;2023-09-08T03:29:41;15.18;;;9.93;;
54263;SDS011;40178;53.042;6.406;2023-09-08T03:32:06;14.05;;;10.57;;
54263;SDS011;40178;53.042;6.406;2023-09-08T03:34:32;12.32;;;9.38;;
54263;SDS011;40178;53.042;6.406;2023-09-08T03:36:59;12.48;;;10.35;;
54263;SDS011;40178;53.042;6.406;2023-09-08T03:39:24;14.07;;;10.13;;
54263;SDS011;40178;53.042;6.406;2023-09-08T03:41:50;15.15;;;11.20;;
54263;SDS011;40178;53.042;6.406;2023-09-08T03:44:15;13.60;;;10.95;;
54263;SDS011;40178;53.042;6.406;2023-09-08T03:46:41;13.20;;;10.25;;
54263;SDS011;40178;53.042;6.406;2023-09-08T03:49:06;15.43;;;10.50;;
54263;SDS011;40178;53.042;6.406;2023-09-08T03:51:33;14.00;;;10.60;;
54263;SDS011;40178;53.042;6.406;2023-09-08T03:53:58;14.43;;;11.00;;
54263;SDS011;40178;53.042;6.406;2023-09-08T03:56:24;14.57;;;11.27;;
54263;SDS011;40178;53.042;6.406;2023-09-08T03:58:50;15.27;;;11.27;;
54263;SDS011;40178;53.042;6.406;2023-09-08T04:01:15;13.43;;;10.57;;
54263;SDS011;40178;53.042;6.406;2023-09-08T04:03:41;16.80;;;11.43;;
54263;SDS011;40178;53.042;6.406;2023-09-08T04:06:06;13.95;;;11.48;;
54263;SDS011;40178;53.042;6.406;2023-09-08T04:08:34;14.13;;;11.25;;
54263;SDS011;40178;53.042;6.406;2023-09-08T04:10:59;12.52;;;10.45;;
54263;SDS011;40178;53.042;6.406;2023-09-08T04:13:25;16.67;;;11.85;;
54263;SDS011;40178;53.042;6.406;2023-09-08T04:15:50;13.93;;;10.10;;
54263;SDS011;40178;53.042;6.406;2023-09-08T04:18:16;14.75;;;10.55;;
54263;SDS011;40178;53.042;6.406;2023-09-08T04:20:42;14.05;;;11.18;;
54263;SDS011;40178;53.042;6.406;2023-09-08T04:23:08;15.05;;;11.82;;
54263;SDS011;40178;53.042;6.406;2023-09-08T04:25:34;15.20;;;11.10;;
54263;SDS011;40178;53.042;6.406;2023-09-08T04:28:01;14.30;;;10.52;;
54263;SDS011;40178;53.042;6.406;2023-09-08T04:30:27;16.73;;;11.80;;
54263;SDS011;40178;53.042;6.406;2023-09-08T04:32:53;14.73;;;11.43;;
54263;SDS011;40178;53.042;6.406;2023-09-08T04:35:18;14.82;;;11.05;;
54263;SDS011;40178;53.042;6.406;2023-09-08T04:37:44;15.73;;;11.52;;
54263;SDS011;40178;53.042;6.406;2023-09-08T04:40:09;14.80;;;11.15;;
54263;SDS011;40178;53.042;6.406;2023-09-08T04:42:35;15.30;;;11.75;;
54263;SDS011;40178;53.042;6.406;2023-09-08T04:45:01;16.33;;;11.15;;
54263;SDS011;40178;53.042;6.406;2023-09-08T04:47:26;14.15;;;10.30;;
54263;SDS011;40178;53.042;6.406;2023-09-08T04:49:52;13.73;;;11.43;;
54263;SDS011;40178;53.042;6.406;2023-09-08T04:52:18;16.50;;;11.32;;
54263;SDS011;40178;53.042;6.406;2023-09-08T04:54:43;14.15;;;10.77;;
54263;SDS011;40178;53.042;6.406;2023-09-08T04:57:09;16.95;;;11.48;;
54263;SDS011;40178;53.042;6.406;2023-09-08T04:59:34;15.27;;;11.02;;
54263;SDS011;40178;53.042;6.406;2023-09-08T05:02:02;15.18;;;9.82;;
54263;SDS011;40178;53.042;6.406;2023-09-08T05:04:28;13.52;;;10.63;;
54263;SDS011;40178;53.042;6.406;2023-09-08T05:06:53;15.20;;;10.32;;
54263;SDS011;40178;53.042;6.406;2023-09-08T05:09:19;13.93;;;10.00;;
54263;SDS011;40178;53.042;6.406;2023-09-08T05:11:44;12.73;;;10.23;;
54263;SDS011;40178;53.042;6.406;2023-09-08T05:14:10;14.13;;;10.48;;
54263;SDS011;40178;53.042;6.406;2023-09-08T05:16:35;14.07;;;10.15;;
54263;SDS011;40178;53.042;6.406;2023-09-08T05:19:05;11.70;;;9.20;;
54263;SDS011;40178;53.042;6.406;2023-09-08T05:21:31;14.68;;;10.60;;
54263;SDS011;40178;53.042;6.406;2023-09-08T05:23:58;13.45;;;9.27;;
54263;SDS011;40178;53.042;6.406;2023-09-08T05:26:24;13.10;;;10.15;;
54263;SDS011;40178;53.042;6.406;2023-09-08T05:28:50;13.15;;;9.85;;
54263;SDS011;40178;53.042;6.406;2023-09-08T05:31:15;12.65;;;9.25;;
54263;SDS011;40178;53.042;6.406;2023-09-08T05:33:41;14.50;;;10.00;;
54263;SDS011;40178;53.042;6.406;2023-09-08T05:36:06;11.90;;;9.55;;
54263;SDS011;40178;53.042;6.406;2023-09-08T05:38:32;15.55;;;10.05;;
54263;SDS011;40178;53.042;6.406;2023-09-08T05:40:58;14.48;;;10.05;;
54263;SDS011;40178;53.042;6.406;2023-09-08T05:43:24;14.32;;;9.90;;
54263;SDS011;40178;53.042;6.406;2023-09-08T05:45:50;12.63;;;8.95;;
54263;SDS011;40178;53.042;6.406;2023-09-08T05:48:16;10.75;;;8.55;;
54263;SDS011;40178;53.042;6.406;2023-09-08T05:50:42;13.45;;;9.27;;
54263;SDS011;40178;53.042;6.406;2023-09-08T05:53:07;13.35;;;10.18;;
54263;SDS011;40178;53.042;6.406;2023-09-08T05:55:33;12.77;;;9.52;;
54263;SDS011;40178;53.042;6.406;2023-09-08T05:57:59;11.43;;;9.32;;
54263;SDS011;40178;53.042;6.406;2023-09-08T06:00:24;12.45;;;9.18;;
54263;SDS011;40178;53.042;6.406;2023-09-08T06:02:50;12.68;;;9.20;;
54263;SDS011;40178;53.042;6.406;2023-09-08T06:05:16;13.90;;;9.13;;
54263;SDS011;40178;53.042;6.406;2023-09-08T06:07:41;13.05;;;8.50;;
54263;SDS011;40178;53.042;6.406;2023-09-08T06:10:07;11.52;;;8.35;;
54263;SDS011;40178;53.042;6.406;2023-09-08T06:12:33;12.88;;;8.85;;
54263;SDS011;40178;53.042;6.406;2023-09-08T06:14:59;12.43;;;8.82;;
54263;SDS011;40178;53.042;6.406;2023-09-08T06:17:24;12.57;;;9.05;;
54263;SDS011;40178;53.042;6.406;2023-09-08T06:19:50;13.30;;;9.02;;
54263;SDS011;40178;53.042;6.406;2023-09-08T06:22:15;12.20;;;8.90;;
54263;SDS011;40178;53.042;6.406;2023-09-08T06:24:41;13.80;;;8.63;;
54263;SDS011;40178;53.042;6.406;2023-09-08T06:27:07;13.65;;;9.00;;
54263;SDS011;40178;53.042;6.406;2023-09-08T06:29:33;11.52;;;9.48;;
54263;SDS011;40178;53.042;6.406;2023-09-08T06:31:58;12.68;;;8.82;;
54263;SDS011;40178;53.042;6.406;2023-09-08T06:34:24;12.23;;;8.40;;
54263;SDS011;40178;53.042;6.406;2023-09-08T06:36:49;14.30;;;8.82;;
54263;SDS011;40178;53.042;6.406;2023-09-08T06:39:15;13.32;;;8.15;;
54263;SDS011;40178;53.042;6.406;2023-09-08T06:41:41;12.73;;;8.35;;
54263;SDS011;40178;53.042;6.406;2023-09-08T06:44:06;9.73;;;7.55;;
54263;SDS011;40178;53.042;6.406;2023-09-08T06:46:32;15.40;;;8.65;;
54263;SDS011;40178;53.042;6.406;2023-09-08T06:48:58;15.20;;;8.10;;
54263;SDS011;40178;53.042;6.406;2023-09-08T06:51:23;10.82;;;7.80;;
54263;SDS011;40178;53.042;6.406;2023-09-08T06:53:53;11.50;;;8.10;;
54263;SDS011;40178;53.042;6.406;2023-09-08T06:56:22;12.02;;;7.97;;
54263;SDS011;40178;53.042;6.406;2023-09-08T06:58:48;11.00;;;8.13;;
54263;SDS011;40178;53.042;6.406;2023-09-08T07:01:13;16.92;;;8.82;;
54263;SDS011;40178;53.042;6.406;2023-09-08T07:03:39;9.48;;;7.35;;
54263;SDS011;40178;53.042;6.406;2023-09-08T07:06:04;13.27;;;8.43;;
54263;SDS011;40178;53.042;6.406;2023-09-08T07:08:30;13.45;;;7.97;;
54263;SDS011;40178;53.042;6.406;2023-09-08T07:10:56;12.45;;;7.18;;
54263;SDS011;40178;53.042;6.406;2023-09-08T07:13:21;11.45;;;7.65;;
54263;SDS011;40178;53.042;6.406;2023-09-08T07:15:47;9.77;;;6.80;;
54263;SDS011;40178;53.042;6.406;2023-09-08T07:18:12;11.15;;;7.18;;
54263;SDS011;40178;53.042;6.406;2023-09-08T07:20:38;10.02;;;7.13;;
54263;SDS011;40178;53.042;6.406;2023-09-08T07:23:03;10.98;;;7.50;;
54263;SDS011;40178;53.042;6.406;2023-09-08T07:25:29;10.63;;;6.88;;
54263;SDS011;40178;53.042;6.406;2023-09-08T07:27:55;11.52;;;7.18;;
54263;SDS011;40178;53.042;6.406;2023-09-08T07:30:20;9.73;;;6.80;;
54263;SDS011;40178;53.042;6.406;2023-09-08T07:32:46;10.52;;;7.40;;
54263;SDS011;40178;53.042;6.406;2023-09-08T07:35:11;9.77;;;6.82;;
54263;SDS011;40178;53.042;6.406;2023-09-08T07:37:42;9.70;;;6.55;;
54263;SDS011;40178;53.042;6.406;2023-09-08T07:40:09;9.88;;;6.47;;
54263;SDS011;40178;53.042;6.406;2023-09-08T07:42:35;9.80;;;6.38;;
54263;SDS011;40178;53.042;6.406;2023-09-08T07:45:00;9.00;;;6.78;;
54263;SDS011;40178;53.042;6.406;2023-09-08T07:47:26;8.50;;;6.30;;
54263;SDS011;40178;53.042;6.406;2023-09-08T07:49:52;9.95;;;6.70;;
54263;SDS011;40178;53.042;6.406;2023-09-08T07:52:37;9.70;;;6.63;;
54263;SDS011;40178;53.042;6.406;2023-09-08T07:55:03;10.07;;;6.28;;
54263;SDS011;40178;53.042;6.406;2023-09-08T07:57:29;8.52;;;6.20;;
54263;SDS011;40178;53.042;6.406;2023-09-08T07:59:54;8.85;;;5.88;;
54263;SDS011;40178;53.042;6.406;2023-09-08T08:02:20;9.98;;;6.38;;
54263;SDS011;40178;53.042;6.406;2023-09-08T08:04:45;9.20;;;6.38;;
54263;SDS011;40178;53.042;6.406;2023-09-08T08:07:11;9.57;;;6.70;;
54263;SDS011;40178;53.042;6.406;2023-09-08T08:09:36;9.18;;;5.82;;
54263;SDS011;40178;53.042;6.406;2023-09-08T08:12:02;11.55;;;5.88;;
54263;SDS011;40178;53.042;6.406;2023-09-08T08:14:28;11.23;;;5.90;;
54263;SDS011;40178;53.042;6.406;2023-09-08T08:16:54;9.18;;;5.60;;
54263;SDS011;40178;53.042;6.406;2023-09-08T08:19:19;7.72;;;5.55;;
54263;SDS011;40178;53.042;6.406;2023-09-08T08:21:45;8.02;;;5.38;;
54263;SDS011;40178;53.042;6.406;2023-09-08T08:24:10;8.45;;;5.22;;
54263;SDS011;40178;53.042;6.406;2023-09-08T08:26:36;11.10;;;5.55;;
54263;SDS011;40178;53.042;6.406;2023-09-08T08:29:02;8.35;;;5.28;;
54263;SDS011;40178;53.042;6.406;2023-09-08T08:31:29;11.18;;;5.57;;
54263;SDS011;40178;53.042;6.406;2023-09-08T08:33:54;10.25;;;5.07;;
54263;SDS011;40178;53.042;6.406;2023-09-08T08:36:20;8.63;;;5.30;;
54263;SDS011;40178;53.042;6.406;2023-09-08T08:38:46;7.60;;;5.68;;
54263;SDS011;40178;53.042;6.406;2023-09-08T08:41:11;8.02;;;5.07;;
54263;SDS011;40178;53.042;6.406;2023-09-08T08:43:37;6.60;;;4.82;;
54263;SDS011;40178;53.042;6.406;2023-09-08T08:46:03;8.52;;;5.22;;
54263;SDS011;40178;53.042;6.406;2023-09-08T08:48:29;8.98;;;5.40;;
54263;SDS011;40178;53.042;6.406;2023-09-08T08:50:57;8.15;;;5.18;;
54263;SDS011;40178;53.042;6.406;2023-09-08T08:53:24;8.82;;;5.53;;
54263;SDS011;40178;53.042;6.406;2023-09-08T08:55:50;9.18;;;5.32;;
54263;SDS011;40178;53.042;6.406;2023-09-08T08:58:19;7.85;;;5.07;;
54263;SDS011;40178;53.042;6.406;2023-09-08T09:00:50;7.57;;;5.05;;
54263;SDS011;40178;53.042;6.406;2023-09-08T09:03:18;9.45;;;5.40;;
54263;SDS011;40178;53.042;6.406;2023-09-08T09:05:45;7.55;;;5.25;;
54263;SDS011;40178;53.042;6.406;2023-09-08T09:08:11;7.55;;;4.75;;
54263;SDS011;40178;53.042;6.406;2023-09-08T09:10:38;8.88;;;4.47;;
54263;SDS011;40178;53.042;6.406;2023-09-08T09:13:03;7.15;;;4.60;;
54263;SDS011;40178;53.042;6.406;2023-09-08T09:15:30;7.03;;;4.70;;
54263;SDS011;40178;53.042;6.406;2023-09-08T09:18:04;8.57;;;4.70;;
54263;SDS011;40178;53.042;6.406;2023-09-08T09:20:31;9.02;;;4.32;;
54263;SDS011;40178;53.042;6.406;2023-09-08T09:22:57;8.43;;;5.35;;
54263;SDS011;40178;53.042;6.406;2023-09-08T09:25:23;6.88;;;4.28;;
54263;SDS011;40178;53.042;6.406;2023-09-08T09:27:56;5.88;;;4.13;;
54263;SDS011;40178;53.042;6.406;2023-09-08T09:30:24;9.98;;;5.05;;
54263;SDS011;40178;53.042;6.406;2023-09-08T09:33:00;8.63;;;4.50;;
54263;SDS011;40178;53.042;6.406;2023-09-08T09:35:39;7.65;;;4.53;;
54263;SDS011;40178;53.042;6.406;2023-09-08T09:38:09;7.80;;;4.43;;
54263;SDS011;40178;53.042;6.406;2023-09-08T09:40:34;6.60;;;4.47;;
54263;SDS011;40178;53.042;6.406;2023-09-08T09:43:00;6.35;;;4.35;;
54263;SDS011;40178;53.042;6.406;2023-09-08T09:45:26;6.38;;;4.03;;
54263;SDS011;40178;53.042;6.406;2023-09-08T09:47:51;9.30;;;4.70;;
54263;SDS011;40178;53.042;6.406;2023-09-08T09:50:30;7.82;;;5.00;;
54263;SDS011;40178;53.042;6.406;2023-09-08T09:52:58;8.45;;;4.60;;
54263;SDS011;40178;53.042;6.406;2023-09-08T09:55:28;8.38;;;5.30;;
54263;SDS011;40178;53.042;6.406;2023-09-08T09:57:57;7.95;;;4.50;;
54263;SDS011;40178;53.042;6.406;2023-09-08T10:00:28;7.70;;;5.32;;
54263;SDS011;40178;53.042;6.406;2023-09-08T10:02:55;6.65;;;4.57;;
54263;SDS011;40178;53.042;6.406;2023-09-08T10:05:22;8.57;;;4.43;;
54263;SDS011;40178;53.042;6.406;2023-09-08T10:07:49;10.70;;;4.40;;
54263;SDS011;40178;53.042;6.406;2023-09-08T10:10:16;6.82;;;4.70;;
54263;SDS011;40178;53.042;6.406;2023-09-08T10:12:46;7.18;;;4.13;;
54263;SDS011;40178;53.042;6.406;2023-09-08T10:15:20;7.10;;;4.30;;
54263;SDS011;40178;53.042;6.406;2023-09-08T10:17:51;7.45;;;4.55;;
54263;SDS011;40178;53.042;6.406;2023-09-08T10:20:19;9.77;;;4.57;;
54263;SDS011;40178;53.042;6.406;2023-09-08T10:22:47;7.93;;;4.88;;
54263;SDS011;40178;53.042;6.406;2023-09-08T10:25:21;7.00;;;4.35;;
54263;SDS011;40178;53.042;6.406;2023-09-08T10:27:49;9.55;;;4.80;;
54263;SDS011;40178;53.042;6.406;2023-09-08T10:30:15;8.35;;;5.13;;
54263;SDS011;40178;53.042;6.406;2023-09-08T10:32:42;7.60;;;4.60;;
54263;SDS011;40178;53.042;6.406;2023-09-08T10:35:08;8.90;;;4.75;;
54263;SDS011;40178;53.042;6.406;2023-09-08T10:37:35;8.63;;;4.90;;
54263;SDS011;40178;53.042;6.406;2023-09-08T10:42:46;8.23;;;4.47;;
54263;SDS011;40178;53.042;6.406;2023-09-08T10:45:15;7.32;;;4.25;;
54263;SDS011;40178;53.042;6.406;2023-09-08T10:50:26;8.43;;;4.80;;
54263;SDS011;40178;53.042;6.406;2023-09-08T10:53:04;9.77;;;4.88;;
54263;SDS011;40178;53.042;6.406;2023-09-08T10:58:37;9.30;;;4.22;;
54263;SDS011;40178;53.042;6.406;2023-09-08T11:01:04;6.15;;;4.18;;
54263;SDS011;40178;53.042;6.406;2023-09-08T11:06:02;5.80;;;3.70;;
54263;SDS011;40178;53.042;6.406;2023-09-08T11:08:28;8.75;;;4.22;;
54263;SDS011;40178;53.042;6.406;2023-09-08T11:10:55;6.05;;;4.00;;
54263;SDS011;40178;53.042;6.406;2023-09-08T11:13:21;6.88;;;3.90;;
54263;SDS011;40178;53.042;6.406;2023-09-08T11:15:47;6.97;;;4.07;;
54263;SDS011;40178;53.042;6.406;2023-09-08T11:18:12;8.48;;;3.95;;
54263;SDS011;40178;53.042;6.406;2023-09-08T11:20:38;7.10;;;3.63;;
54263;SDS011;40178;53.042;6.406;2023-09-08T11:23:04;6.22;;;4.20;;
54263;SDS011;40178;53.042;6.406;2023-09-08T11:25:32;6.32;;;3.75;;
54263;SDS011;40178;53.042;6.406;2023-09-08T11:27:59;6.90;;;3.95;;
54263;SDS011;40178;53.042;6.406;2023-09-08T11:30:25;6.38;;;3.40;;
54263;SDS011;40178;53.042;6.406;2023-09-08T11:32:51;6.60;;;4.00;;
54263;SDS011;40178;53.042;6.406;2023-09-08T11:35:17;6.35;;;3.60;;
54263;SDS011;40178;53.042;6.406;2023-09-08T11:37:45;6.65;;;4.25;;
54263;SDS011;40178;53.042;6.406;2023-09-08T11:40:12;5.43;;;3.40;;
54263;SDS011;40178;53.042;6.406;2023-09-08T11:42:42;8.27;;;3.63;;
54263;SDS011;40178;53.042;6.406;2023-09-08T11:45:10;7.20;;;3.88;;
54263;SDS011;40178;53.042;6.406;2023-09-08T11:47:37;7.20;;;3.67;;
54263;SDS011;40178;53.042;6.406;2023-09-08T11:50:11;5.43;;;3.38;;
54263;SDS011;40178;53.042;6.406;2023-09-08T11:52:40;5.45;;;3.20;;
54263;SDS011;40178;53.042;6.406;2023-09-08T11:55:09;5.55;;;3.33;;
54263;SDS011;40178;53.042;6.406;2023-09-08T11:57:37;6.25;;;3.40;;
54263;SDS011;40178;53.042;6.406;2023-09-08T12:00:05;4.85;;;3.20;;
54263;SDS011;40178;53.042;6.406;2023-09-08T12:02:35;5.88;;;3.47;;
54263;SDS011;40178;53.042;6.406;2023-09-08T12:05:02;5.65;;;3.30;;
54263;SDS011;40178;53.042;6.406;2023-09-08T12:07:37;6.30;;;3.80;;
54263;SDS011;40178;53.042;6.406;2023-09-08T12:10:07;5.30;;;3.28;;
54263;SDS011;40178;53.042;6.406;2023-09-08T12:12:43;5.63;;;3.03;;
54263;SDS011;40178;53.042;6.406;2023-09-08T12:15:09;6.40;;;3.58;;
54263;SDS011;40178;53.042;6.406;2023-09-08T12:17:56;5.85;;;3.38;;
54263;SDS011;40178;53.042;6.406;2023-09-08T12:20:21;7.32;;;3.55;;
54263;SDS011;40178;53.042;6.406;2023-09-08T12:22:47;7.65;;;3.28;;
54263;SDS011;40178;53.042;6.406;2023-09-08T12:25:15;6.35;;;3.58;;
54263;SDS011;40178;53.042;6.406;2023-09-08T12:27:41;5.93;;;3.85;;
54263;SDS011;40178;53.042;6.406;2023-09-08T12:30:07;6.90;;;3.53;;
54263;SDS011;40178;53.042;6.406;2023-09-08T12:32:34;7.10;;;3.40;;
54263;SDS011;40178;53.042;6.406;2023-09-08T12:35:02;7.15;;;4.10;;
54263;SDS011;40178;53.042;6.406;2023-09-08T12:37:29;6.32;;;3.17;;
54263;SDS011;40178;53.042;6.406;2023-09-08T12:39:56;5.30;;;3.58;;
54263;SDS011;40178;53.042;6.406;2023-09-08T12:42:22;6.13;;;3.83;;
54263;SDS011;40178;53.042;6.406;2023-09-08T12:44:53;6.70;;;3.45;;
54263;SDS011;40178;53.042;6.406;2023-09-08T12:47:19;6.82;;;3.63;;
54263;SDS011;40178;53.042;6.406;2023-09-08T12:49:44;7.03;;;3.80;;
54263;SDS011;40178;53.042;6.406;2023-09-08T12:52:10;6.45;;;3.38;;
54263;SDS011;40178;53.042;6.406;2023-09-08T12:54:36;5.78;;;3.28;;
54263;SDS011;40178;53.042;6.406;2023-09-08T12:57:02;5.82;;;3.20;;
54263;SDS011;40178;53.042;6.406;2023-09-08T12:59:27;5.20;;;2.88;;
54263;SDS011;40178;53.042;6.406;2023-09-08T13:01:53;7.40;;;3.15;;
54263;SDS011;40178;53.042;6.406;2023-09-08T13:04:20;7.22;;;3.30;;
54263;SDS011;40178;53.042;6.406;2023-09-08T13:06:47;7.22;;;2.90;;
54263;SDS011;40178;53.042;6.406;2023-09-08T13:09:12;5.45;;;3.15;;
54263;SDS011;40178;53.042;6.406;2023-09-08T13:11:38;6.82;;;3.38;;
54263;SDS011;40178;53.042;6.406;2023-09-08T13:14:04;10.55;;;3.47;;
54263;SDS011;40178;53.042;6.406;2023-09-08T13:16:30;7.35;;;3.17;;
54263;SDS011;40178;53.042;6.406;2023-09-08T13:18:55;5.25;;;3.30;;
54263;SDS011;40178;53.042;6.406;2023-09-08T13:21:21;5.60;;;2.70;;
54263;SDS011;40178;53.042;6.406;2023-09-08T13:23:46;6.07;;;3.17;;
54263;SDS011;40178;53.042;6.406;2023-09-08T13:26:12;6.28;;;2.97;;
54263;SDS011;40178;53.042;6.406;2023-09-08T13:28:37;5.05;;;3.05;;
54263;SDS011;40178;53.042;6.406;2023-09-08T13:31:03;5.60;;;3.20;;
54263;SDS011;40178;53.042;6.406;2023-09-08T13:33:29;6.05;;;3.22;;
54263;SDS011;40178;53.042;6.406;2023-09-08T13:35:54;5.55;;;2.67;;
54263;SDS011;40178;53.042;6.406;2023-09-08T13:38:20;5.00;;;2.40;;
54263;SDS011;40178;53.042;6.406;2023-09-08T13:40:46;6.22;;;2.67;;
54263;SDS011;40178;53.042;6.406;2023-09-08T13:43:12;7.30;;;3.75;;
54263;SDS011;40178;53.042;6.406;2023-09-08T13:45:37;5.70;;;3.38;;
54263;SDS011;40178;53.042;6.406;2023-09-08T13:48:03;5.75;;;3.00;;
54263;SDS011;40178;53.042;6.406;2023-09-08T13:50:31;5.00;;;2.80;;
54263;SDS011;40178;53.042;6.406;2023-09-08T13:52:57;6.63;;;3.55;;
54263;SDS011;40178;53.042;6.406;2023-09-08T13:55:22;5.05;;;2.75;;
54263;SDS011;40178;53.042;6.406;2023-09-08T13:57:49;4.63;;;2.50;;
54263;SDS011;40178;53.042;6.406;2023-09-08T14:00:15;5.15;;;2.80;;
54263;SDS011;40178;53.042;6.406;2023-09-08T14:02:44;4.18;;;2.35;;
54263;SDS011;40178;53.042;6.406;2023-09-08T14:05:10;5.85;;;2.83;;
54263;SDS011;40178;53.042;6.406;2023-09-08T14:07:35;6.47;;;3.20;;
54263;SDS011;40178;53.042;6.406;2023-09-08T14:10:01;5.50;;;3.28;;
54263;SDS011;40178;53.042;6.406;2023-09-08T14:12:32;5.28;;;3.28;;
54263;SDS011;40178;53.042;6.406;2023-09-08T14:14:58;5.80;;;2.95;;
54263;SDS011;40178;53.042;6.406;2023-09-08T14:17:23;5.50;;;3.15;;
54263;SDS011;40178;53.042;6.406;2023-09-08T14:19:49;6.67;;;3.60;;
54263;SDS011;40178;53.042;6.406;2023-09-08T14:22:15;5.82;;;3.30;;
54263;SDS011;40178;53.042;6.406;2023-09-08T14:24:40;5.93;;;3.17;;
54263;SDS011;40178;53.042;6.406;2023-09-08T14:27:06;5.00;;;3.13;;
54263;SDS011;40178;53.042;6.406;2023-09-08T14:29:33;4.85;;;2.92;;
54263;SDS011;40178;53.042;6.406;2023-09-08T14:31:59;8.82;;;4.10;;
54263;SDS011;40178;53.042;6.406;2023-09-08T14:34:24;6.68;;;3.42;;
54263;SDS011;40178;53.042;6.406;2023-09-08T14:36:50;6.18;;;3.63;;
54263;SDS011;40178;53.042;6.406;2023-09-08T14:39:15;6.05;;;3.35;;
54263;SDS011;40178;53.042;6.406;2023-09-08T14:41:44;5.97;;;3.45;;
54263;SDS011;40178;53.042;6.406;2023-09-08T14:44:10;7.75;;;4.25;;
54263;SDS011;40178;53.042;6.406;2023-09-08T14:46:35;6.05;;;3.95;;
54263;SDS011;40178;53.042;6.406;2023-09-08T14:49:01;6.97;;;3.90;;